UAL2167 KDEN-KRNO
Flight info
| Callsign | UAL2167 |
|---|---|
| Flight time | 1h 49m |
| Altitude | 36000 |
| Route | ZIMMR4 CHNGY WAATS Q124 FASTE MYBAD WINRZ1 |
| Aircraft | B738/M-SDE2E3FGHIRWXY/LB1 |
Departure
| Time | 2026-05-03 20:18 |
|---|---|
| Airport | Denver International Airport (KDEN) |
Arrival
| Time | 2026-05-03 22:07 |
|---|---|
| Airport | Reno Tahoe International Airport (KRNO) |
| Time | Latitude | Longitude | Altitude | Speed | Heading |
|---|---|---|---|---|---|
| 2026-05-03 20:15 | 39.85306 | -104.68389 | 5365 ft | 18 kts | 273° |
| 2026-05-03 20:15 | 39.85244 | -104.68515 | 5363 ft | 19 kts | 204° |
| 2026-05-03 20:15 | 39.85202 | -104.68658 | 5363 ft | 19 kts | 272° |
| 2026-05-03 20:15 | 39.85201 | -104.68834 | 5362 ft | 20 kts | 269° |
| 2026-05-03 20:16 | 39.85197 | -104.69021 | 5364 ft | 21 kts | 266° |
| 2026-05-03 20:16 | 39.85191 | -104.69227 | 5365 ft | 22 kts | 274° |
| 2026-05-03 20:16 | 39.85200 | -104.69426 | 5365 ft | 22 kts | 271° |
| 2026-05-03 20:16 | 39.85212 | -104.69623 | 5365 ft | 15 kts | 300° |
| 2026-05-03 20:17 | 39.85358 | -104.69654 | 5365 ft | 46 kts | 360° |
| 2026-05-03 20:17 | 39.85905 | -104.69649 | 5366 ft | 110 kts | 360° |
| 2026-05-03 20:17 | 39.86846 | -104.69636 | 5369 ft | 161 kts | 4° |
| 2026-05-03 20:17 | 39.88049 | -104.69565 | 5866 ft | 174 kts | 357° |
| 2026-05-03 20:18 | 39.89301 | -104.69529 | 6546 ft | 185 kts | 357° |
| 2026-05-03 20:18 | 39.90671 | -104.69632 | 6826 ft | 209 kts | 341° |
| 2026-05-03 20:18 | 39.91994 | -104.70561 | 7019 ft | 228 kts | 316° |
| 2026-05-03 20:18 | 39.92877 | -104.72339 | 7347 ft | 243 kts | 284° |
| 2026-05-03 20:19 | 39.93097 | -104.74567 | 7892 ft | 252 kts | 272° |
| 2026-05-03 20:19 | 39.93118 | -104.76920 | 8575 ft | 270 kts | 270° |
| 2026-05-03 20:19 | 39.93122 | -104.79439 | 9369 ft | 275 kts | 271° |
| 2026-05-03 20:19 | 39.93128 | -104.81961 | 9785 ft | 280 kts | 271° |
| 2026-05-03 20:20 | 39.93144 | -104.84478 | 9999 ft | 280 kts | 271° |
| 2026-05-03 20:20 | 39.93170 | -104.87067 | 9945 ft | 287 kts | 271° |
| 2026-05-03 20:20 | 39.93189 | -104.89672 | 9958 ft | 286 kts | 272° |
| 2026-05-03 20:20 | 39.93237 | -104.92240 | 9970 ft | 283 kts | 272° |
| 2026-05-03 20:21 | 39.93306 | -104.94809 | 10398 ft | 285 kts | 272° |
| 2026-05-03 20:21 | 39.93372 | -104.97382 | 11328 ft | 282 kts | 272° |
| 2026-05-03 20:21 | 39.93434 | -104.99951 | 12177 ft | 285 kts | 272° |
| 2026-05-03 20:21 | 39.93495 | -105.02547 | 12992 ft | 288 kts | 272° |
| 2026-05-03 20:22 | 39.93555 | -105.05168 | 13833 ft | 291 kts | 272° |
| 2026-05-03 20:22 | 39.93616 | -105.07855 | 14544 ft | 295 kts | 272° |
| 2026-05-03 20:22 | 39.93676 | -105.10547 | 15238 ft | 299 kts | 272° |
| 2026-05-03 20:22 | 39.93736 | -105.13232 | 15997 ft | 300 kts | 272° |
| 2026-05-03 20:23 | 39.93797 | -105.15968 | 16679 ft | 305 kts | 272° |
| 2026-05-03 20:23 | 39.93857 | -105.18753 | 17414 ft | 307 kts | 272° |
| 2026-05-03 20:23 | 39.93917 | -105.21540 | 18112 ft | 312 kts | 272° |
| 2026-05-03 20:23 | 39.94052 | -105.24391 | 18681 ft | 316 kts | 276° |
| 2026-05-03 20:24 | 39.94286 | -105.27237 | 19403 ft | 316 kts | 276° |
| 2026-05-03 20:24 | 39.94537 | -105.30110 | 20010 ft | 321 kts | 276° |
| 2026-05-03 20:24 | 39.94782 | -105.33047 | 20665 ft | 323 kts | 276° |
| 2026-05-03 20:24 | 39.95015 | -105.35976 | 21322 ft | 325 kts | 276° |
| 2026-05-03 20:25 | 39.95245 | -105.38912 | 22002 ft | 326 kts | 276° |
| 2026-05-03 20:25 | 39.95478 | -105.41907 | 22295 ft | 341 kts | 276° |
| 2026-05-03 20:25 | 39.95725 | -105.45057 | 22430 ft | 357 kts | 276° |
| 2026-05-03 20:25 | 39.95982 | -105.48332 | 22726 ft | 368 kts | 276° |
| 2026-05-03 20:26 | 39.96244 | -105.51691 | 23187 ft | 374 kts | 276° |
| 2026-05-03 20:26 | 39.96418 | -105.53924 | 23623 ft | 374 kts | 275° |
| 2026-05-03 20:26 | 39.96765 | -105.58428 | 24406 ft | 374 kts | 275° |
| 2026-05-03 20:26 | 39.97020 | -105.61768 | 24874 ft | 377 kts | 275° |
| 2026-05-03 20:27 | 39.97279 | -105.65184 | 25362 ft | 379 kts | 275° |
| 2026-05-03 20:27 | 39.97515 | -105.68627 | 25633 ft | 387 kts | 274° |
| 2026-05-03 20:27 | 39.97705 | -105.72187 | 25739 ft | 399 kts | 273° |
| 2026-05-03 20:27 | 39.97823 | -105.74652 | 25800 ft | 407 kts | 273° |
| 2026-05-03 20:28 | 39.97996 | -105.78387 | 25894 ft | 417 kts | 273° |
| 2026-05-03 20:28 | 39.98233 | -105.83438 | 26234 ft | 424 kts | 273° |
| 2026-05-03 20:28 | 39.98356 | -105.86030 | 26524 ft | 424 kts | 273° |
| 2026-05-03 20:28 | 39.98541 | -105.89872 | 26955 ft | 424 kts | 273° |
| 2026-05-03 20:29 | 39.98728 | -105.93717 | 27323 ft | 426 kts | 273° |
| 2026-05-03 20:29 | 39.98915 | -105.97578 | 27625 ft | 428 kts | 273° |
| 2026-05-03 20:29 | 39.99103 | -106.01461 | 27938 ft | 430 kts | 273° |
| 2026-05-03 20:29 | 39.99290 | -106.05359 | 28270 ft | 431 kts | 273° |
| 2026-05-03 20:30 | 39.99480 | -106.09323 | 28592 ft | 433 kts | 273° |
| 2026-05-03 20:30 | 39.99663 | -106.13201 | 28876 ft | 435 kts | 273° |
| 2026-05-03 20:30 | 39.99851 | -106.17194 | 29215 ft | 435 kts | 273° |
| 2026-05-03 20:30 | 40.00031 | -106.21043 | 29684 ft | 432 kts | 273° |
| 2026-05-03 20:31 | 40.00215 | -106.25024 | 30200 ft | 429 kts | 273° |
| 2026-05-03 20:31 | 40.00394 | -106.28903 | 30561 ft | 428 kts | 273° |
| 2026-05-03 20:31 | 40.00573 | -106.32824 | 30830 ft | 428 kts | 273° |
| 2026-05-03 20:31 | 40.00749 | -106.36713 | 31106 ft | 428 kts | 273° |
| 2026-05-03 20:32 | 40.00921 | -106.40532 | 31483 ft | 426 kts | 273° |
| 2026-05-03 20:32 | 40.01098 | -106.44477 | 31864 ft | 425 kts | 273° |
| 2026-05-03 20:32 | 40.01319 | -106.48325 | 32198 ft | 425 kts | 276° |
| 2026-05-03 20:32 | 40.01758 | -106.52140 | 32508 ft | 425 kts | 279° |
| 2026-05-03 20:33 | 40.02313 | -106.55921 | 32873 ft | 423 kts | 281° |
| 2026-05-03 20:33 | 40.02902 | -106.59670 | 33247 ft | 422 kts | 281° |
| 2026-05-03 20:33 | 40.03492 | -106.63415 | 33570 ft | 421 kts | 281° |
| 2026-05-03 20:33 | 40.04069 | -106.67167 | 33889 ft | 421 kts | 280° |
| 2026-05-03 20:34 | 40.04629 | -106.70910 | 34180 ft | 420 kts | 280° |
| 2026-05-03 20:34 | 40.05175 | -106.74650 | 34496 ft | 418 kts | 280° |
| 2026-05-03 20:34 | 40.05711 | -106.78377 | 34806 ft | 417 kts | 279° |
| 2026-05-03 20:34 | 40.06239 | -106.82098 | 35109 ft | 415 kts | 279° |
| 2026-05-03 20:35 | 40.06762 | -106.85805 | 35384 ft | 414 kts | 279° |
| 2026-05-03 20:35 | 40.07282 | -106.89505 | 35648 ft | 414 kts | 279° |
| 2026-05-03 20:35 | 40.07799 | -106.93197 | 35923 ft | 412 kts | 279° |
| 2026-05-03 20:36 | 40.08835 | -107.00626 | 35996 ft | 418 kts | 279° |
| 2026-05-03 20:36 | 40.09882 | -107.08160 | 35995 ft | 416 kts | 279° |
| 2026-05-03 20:37 | 40.10902 | -107.15526 | 35995 ft | 410 kts | 279° |
| 2026-05-03 20:37 | 40.11912 | -107.22863 | 35995 ft | 406 kts | 279° |
| 2026-05-03 20:38 | 40.12911 | -107.30152 | 35988 ft | 409 kts | 279° |
| 2026-05-03 20:38 | 40.13918 | -107.37543 | 35997 ft | 417 kts | 279° |
| 2026-05-03 20:39 | 40.14929 | -107.45001 | 35980 ft | 418 kts | 279° |
| 2026-05-03 20:39 | 40.15939 | -107.52479 | 36003 ft | 418 kts | 279° |
| 2026-05-03 20:40 | 40.16944 | -107.59968 | 36020 ft | 418 kts | 279° |
| 2026-05-03 20:40 | 40.17945 | -107.67458 | 36035 ft | 418 kts | 279° |
| 2026-05-03 20:41 | 40.18939 | -107.74935 | 36054 ft | 417 kts | 279° |
| 2026-05-03 20:41 | 40.19927 | -107.82404 | 36075 ft | 416 kts | 279° |
| 2026-05-03 20:42 | 40.20910 | -107.89880 | 36063 ft | 416 kts | 279° |
| 2026-05-03 20:42 | 40.21884 | -107.97322 | 36044 ft | 415 kts | 279° |
| 2026-05-03 20:43 | 40.22855 | -108.04774 | 36016 ft | 416 kts | 279° |
| 2026-05-03 20:43 | 40.23822 | -108.12244 | 35981 ft | 415 kts | 278° |
| 2026-05-03 20:44 | 40.24784 | -108.19712 | 35939 ft | 416 kts | 278° |
| 2026-05-03 20:44 | 40.25743 | -108.27193 | 35928 ft | 418 kts | 278° |
| 2026-05-03 20:44 | 40.26223 | -108.30954 | 36089 ft | 419 kts | 278° |
| 2026-05-03 20:45 | 40.26712 | -108.34801 | 36442 ft | 415 kts | 278° |
| 2026-05-03 20:45 | 40.27185 | -108.38518 | 36799 ft | 412 kts | 278° |
| 2026-05-03 20:45 | 40.27653 | -108.42219 | 37052 ft | 411 kts | 278° |
| 2026-05-03 20:45 | 40.28121 | -108.45922 | 37256 ft | 411 kts | 278° |
| 2026-05-03 20:46 | 40.28587 | -108.49622 | 37466 ft | 411 kts | 278° |
| 2026-05-03 20:46 | 40.28895 | -108.52076 | 37628 ft | 410 kts | 278° |
| 2026-05-03 20:46 | 40.29513 | -108.57004 | 37919 ft | 410 kts | 278° |
| 2026-05-03 20:47 | 40.30430 | -108.64353 | 37904 ft | 412 kts | 278° |
| 2026-05-03 20:47 | 40.31346 | -108.71735 | 37903 ft | 408 kts | 278° |
| 2026-05-03 20:48 | 40.32250 | -108.79056 | 37914 ft | 405 kts | 278° |
| 2026-05-03 20:48 | 40.33144 | -108.86341 | 37914 ft | 404 kts | 278° |
| 2026-05-03 20:49 | 40.34032 | -108.93612 | 37917 ft | 404 kts | 278° |
| 2026-05-03 20:49 | 40.34916 | -109.00893 | 37922 ft | 405 kts | 278° |
| 2026-05-03 20:50 | 40.35800 | -109.08208 | 37930 ft | 407 kts | 278° |
| 2026-05-03 20:50 | 40.36682 | -109.15555 | 37964 ft | 409 kts | 277° |
| 2026-05-03 20:51 | 40.37567 | -109.22963 | 37982 ft | 412 kts | 277° |
| 2026-05-03 20:51 | 40.38307 | -109.29185 | 38010 ft | 413 kts | 277° |
| 2026-05-03 20:52 | 40.39184 | -109.36605 | 38041 ft | 415 kts | 277° |
| 2026-05-03 20:52 | 40.40064 | -109.44092 | 38060 ft | 416 kts | 277° |
| 2026-05-03 20:53 | 40.40948 | -109.51650 | 38057 ft | 416 kts | 277° |
| 2026-05-03 20:53 | 40.41822 | -109.59169 | 38054 ft | 416 kts | 277° |
| 2026-05-03 20:54 | 40.42689 | -109.66676 | 38041 ft | 416 kts | 277° |
| 2026-05-03 20:54 | 40.43986 | -109.77983 | 38008 ft | 415 kts | 277° |
| 2026-05-03 20:55 | 40.44838 | -109.85468 | 37986 ft | 414 kts | 277° |
| 2026-05-03 20:55 | 40.45685 | -109.92952 | 37966 ft | 414 kts | 277° |
| 2026-05-03 20:56 | 40.46527 | -110.00432 | 37950 ft | 413 kts | 277° |
| 2026-05-03 20:56 | 40.47362 | -110.07904 | 37959 ft | 413 kts | 277° |
| 2026-05-03 20:57 | 40.48193 | -110.15379 | 37962 ft | 413 kts | 277° |
| 2026-05-03 20:57 | 40.49020 | -110.22863 | 37966 ft | 414 kts | 277° |
| 2026-05-03 20:58 | 40.49842 | -110.30352 | 37969 ft | 414 kts | 277° |
| 2026-05-03 20:58 | 40.50660 | -110.37850 | 37984 ft | 415 kts | 277° |
| 2026-05-03 20:59 | 40.51475 | -110.45364 | 37986 ft | 416 kts | 277° |
| 2026-05-03 20:59 | 40.52289 | -110.52915 | 37995 ft | 417 kts | 276° |
| 2026-05-03 21:00 | 40.52962 | -110.59197 | 38006 ft | 418 kts | 276° |
| 2026-05-03 21:00 | 40.53907 | -110.68071 | 37999 ft | 420 kts | 276° |
| 2026-05-03 21:01 | 40.54711 | -110.75678 | 38005 ft | 419 kts | 276° |
| 2026-05-03 21:01 | 40.55512 | -110.83289 | 38015 ft | 420 kts | 276° |
| 2026-05-03 21:02 | 40.56305 | -110.90891 | 37995 ft | 420 kts | 276° |
| 2026-05-03 21:02 | 40.57100 | -110.98556 | 37997 ft | 420 kts | 276° |
| 2026-05-03 21:03 | 40.57885 | -111.06181 | 38001 ft | 420 kts | 276° |
| 2026-05-03 21:03 | 40.58671 | -111.13858 | 37995 ft | 419 kts | 276° |
| 2026-05-03 21:04 | 40.59424 | -111.21272 | 38015 ft | 419 kts | 276° |
| 2026-05-03 21:04 | 40.60229 | -111.29236 | 38022 ft | 420 kts | 276° |
| 2026-05-03 21:05 | 40.61002 | -111.36945 | 38034 ft | 420 kts | 276° |
| 2026-05-03 21:05 | 40.61762 | -111.44575 | 38020 ft | 421 kts | 276° |
| 2026-05-03 21:06 | 40.62518 | -111.52224 | 38014 ft | 421 kts | 276° |
| 2026-05-03 21:06 | 40.63283 | -111.60015 | 38003 ft | 422 kts | 276° |
| 2026-05-03 21:07 | 40.63923 | -111.66569 | 37977 ft | 422 kts | 276° |
| 2026-05-03 21:07 | 40.64660 | -111.74167 | 37982 ft | 422 kts | 276° |
| 2026-05-03 21:08 | 40.64667 | -111.74244 | 37980 ft | 422 kts | 276° |
| 2026-05-03 21:08 | 40.65361 | -111.81452 | 37997 ft | 423 kts | 276° |
| 2026-05-03 21:09 | 40.66099 | -111.89175 | 38015 ft | 423 kts | 276° |
| 2026-05-03 21:09 | 40.66841 | -111.96989 | 38009 ft | 423 kts | 276° |
| 2026-05-03 21:10 | 40.67571 | -112.04736 | 38011 ft | 423 kts | 275° |
| 2026-05-03 21:10 | 40.68292 | -112.12436 | 38000 ft | 423 kts | 275° |
| 2026-05-03 21:11 | 40.69006 | -112.20129 | 37971 ft | 423 kts | 275° |
| 2026-05-03 21:11 | 40.69731 | -112.27995 | 37986 ft | 424 kts | 275° |
| 2026-05-03 21:12 | 40.70438 | -112.35715 | 37996 ft | 424 kts | 275° |
| 2026-05-03 21:12 | 40.71144 | -112.43493 | 37978 ft | 425 kts | 275° |
| 2026-05-03 21:13 | 40.71843 | -112.51237 | 37961 ft | 425 kts | 275° |
| 2026-05-03 21:13 | 40.72146 | -112.59006 | 37948 ft | 425 kts | 269° |
| 2026-05-03 21:14 | 40.72179 | -112.66859 | 37925 ft | 425 kts | 269° |
| 2026-05-03 21:14 | 40.72210 | -112.74665 | 37898 ft | 426 kts | 269° |
| 2026-05-03 21:15 | 40.72261 | -112.82496 | 37875 ft | 427 kts | 269° |
| 2026-05-03 21:15 | 40.72317 | -112.90342 | 37875 ft | 428 kts | 269° |
| 2026-05-03 21:16 | 40.72370 | -112.98204 | 37871 ft | 429 kts | 269° |
| 2026-05-03 21:16 | 40.72417 | -113.06141 | 37866 ft | 431 kts | 269° |
| 2026-05-03 21:17 | 40.72453 | -113.12754 | 37877 ft | 431 kts | 269° |
| 2026-05-03 21:17 | 40.72496 | -113.22032 | 37883 ft | 432 kts | 269° |
| 2026-05-03 21:18 | 40.72527 | -113.29976 | 37882 ft | 432 kts | 269° |
| 2026-05-03 21:18 | 40.72549 | -113.36719 | 37884 ft | 432 kts | 269° |
| 2026-05-03 21:19 | 40.72570 | -113.44749 | 37896 ft | 432 kts | 269° |
| 2026-05-03 21:19 | 40.72585 | -113.52687 | 37892 ft | 433 kts | 269° |
| 2026-05-03 21:20 | 40.72595 | -113.60672 | 37915 ft | 433 kts | 269° |
| 2026-05-03 21:20 | 40.72601 | -113.68618 | 37944 ft | 433 kts | 269° |
| 2026-05-03 21:21 | 40.72597 | -113.76614 | 37969 ft | 433 kts | 268° |
| 2026-05-03 21:21 | 40.72386 | -113.84548 | 37988 ft | 433 kts | 266° |
| 2026-05-03 21:22 | 40.72079 | -113.92491 | 38005 ft | 433 kts | 266° |
| 2026-05-03 21:22 | 40.71786 | -114.00483 | 38013 ft | 434 kts | 266° |
| 2026-05-03 21:23 | 40.71507 | -114.08499 | 38007 ft | 435 kts | 266° |
| 2026-05-03 21:23 | 40.71230 | -114.16461 | 38005 ft | 435 kts | 266° |
| 2026-05-03 21:24 | 40.70945 | -114.24495 | 37990 ft | 436 kts | 266° |
| 2026-05-03 21:24 | 40.70654 | -114.32498 | 37975 ft | 438 kts | 266° |
| 2026-05-03 21:25 | 40.70359 | -114.40475 | 37951 ft | 438 kts | 266° |
| 2026-05-03 21:25 | 40.70058 | -114.48500 | 37922 ft | 439 kts | 266° |
| 2026-05-03 21:26 | 40.69651 | -114.56521 | 37918 ft | 438 kts | 264° |
| 2026-05-03 21:26 | 40.69103 | -114.64580 | 37923 ft | 438 kts | 264° |
| 2026-05-03 21:27 | 40.68552 | -114.72582 | 37912 ft | 439 kts | 264° |
| 2026-05-03 21:27 | 40.68013 | -114.80595 | 37905 ft | 439 kts | 264° |
| 2026-05-03 21:28 | 40.67479 | -114.88599 | 37900 ft | 439 kts | 264° |
| 2026-05-03 21:28 | 40.66941 | -114.96603 | 37906 ft | 438 kts | 263° |
| 2026-05-03 21:29 | 40.66397 | -115.04616 | 37905 ft | 438 kts | 263° |
| 2026-05-03 21:29 | 40.65848 | -115.12615 | 37905 ft | 438 kts | 263° |
| 2026-05-03 21:30 | 40.65387 | -115.19260 | 37899 ft | 438 kts | 263° |
| 2026-05-03 21:30 | 40.64735 | -115.28583 | 37898 ft | 438 kts | 263° |
| 2026-05-03 21:31 | 40.64168 | -115.36591 | 37896 ft | 439 kts | 263° |
| 2026-05-03 21:31 | 40.63591 | -115.44649 | 37915 ft | 439 kts | 263° |
| 2026-05-03 21:32 | 40.63014 | -115.52660 | 37916 ft | 440 kts | 263° |
| 2026-05-03 21:32 | 40.62425 | -115.60743 | 37920 ft | 441 kts | 263° |
| 2026-05-03 21:33 | 40.61831 | -115.68803 | 37930 ft | 441 kts | 263° |
| 2026-05-03 21:33 | 40.61232 | -115.76872 | 37936 ft | 442 kts | 263° |
| 2026-05-03 21:34 | 40.60628 | -115.84927 | 37926 ft | 442 kts | 263° |
| 2026-05-03 21:34 | 40.60014 | -115.93026 | 37918 ft | 442 kts | 263° |
| 2026-05-03 21:35 | 40.59398 | -116.01088 | 37896 ft | 443 kts | 263° |
| 2026-05-03 21:35 | 40.58877 | -116.07842 | 37876 ft | 444 kts | 263° |
| 2026-05-03 21:36 | 40.58250 | -116.15919 | 37850 ft | 444 kts | 263° |
| 2026-05-03 21:36 | 40.57615 | -116.24013 | 37848 ft | 444 kts | 263° |
| 2026-05-03 21:37 | 40.56967 | -116.32096 | 37839 ft | 445 kts | 262° |
| 2026-05-03 21:37 | 40.56309 | -116.40230 | 37840 ft | 445 kts | 262° |
| 2026-05-03 21:38 | 40.55649 | -116.48420 | 37866 ft | 445 kts | 262° |
| 2026-05-03 21:38 | 40.54993 | -116.56502 | 37899 ft | 445 kts | 262° |
| 2026-05-03 21:39 | 40.53688 | -116.72361 | 37951 ft | 445 kts | 262° |
| 2026-05-03 21:40 | 40.53003 | -116.80562 | 37970 ft | 446 kts | 262° |
| 2026-05-03 21:40 | 40.52307 | -116.88836 | 37976 ft | 446 kts | 262° |
| 2026-05-03 21:41 | 40.51676 | -116.96276 | 37964 ft | 446 kts | 262° |
| 2026-05-03 21:41 | 40.50978 | -117.04437 | 37939 ft | 447 kts | 262° |
| 2026-05-03 21:42 | 40.50276 | -117.12570 | 37909 ft | 447 kts | 262° |
| 2026-05-03 21:42 | 40.49561 | -117.20800 | 37872 ft | 448 kts | 262° |
| 2026-05-03 21:43 | 40.48843 | -117.28982 | 37845 ft | 448 kts | 262° |
| 2026-05-03 21:43 | 40.48124 | -117.37116 | 37834 ft | 448 kts | 262° |
| 2026-05-03 21:44 | 40.47394 | -117.45309 | 37833 ft | 448 kts | 262° |
| 2026-05-03 21:44 | 40.46663 | -117.53446 | 37838 ft | 449 kts | 262° |
| 2026-05-03 21:45 | 40.45920 | -117.61651 | 37837 ft | 449 kts | 262° |
| 2026-05-03 21:45 | 40.45171 | -117.69854 | 37535 ft | 453 kts | 262° |
| 2026-05-03 21:46 | 40.44793 | -117.73970 | 36946 ft | 453 kts | 262° |
| 2026-05-03 21:46 | 40.44406 | -117.78164 | 36349 ft | 451 kts | 262° |
| 2026-05-03 21:46 | 40.44028 | -117.82249 | 35739 ft | 451 kts | 262° |
| 2026-05-03 21:46 | 40.43648 | -117.86338 | 35086 ft | 452 kts | 262° |
| 2026-05-03 21:47 | 40.43265 | -117.90447 | 34407 ft | 455 kts | 262° |
| 2026-05-03 21:47 | 40.43004 | -117.93241 | 33927 ft | 458 kts | 262° |
| 2026-05-03 21:48 | 40.39988 | -118.09796 | 31215 ft | 455 kts | 244° |
| 2026-05-03 21:48 | 40.38704 | -118.13574 | 30704 ft | 452 kts | 244° |
| 2026-05-03 21:48 | 40.37419 | -118.17326 | 30200 ft | 450 kts | 244° |
| 2026-05-03 21:49 | 40.36148 | -118.21058 | 29667 ft | 447 kts | 244° |
| 2026-05-03 21:49 | 40.34898 | -118.24769 | 29100 ft | 442 kts | 244° |
| 2026-05-03 21:49 | 40.33672 | -118.28442 | 28593 ft | 438 kts | 245° |
| 2026-05-03 21:49 | 40.32462 | -118.32085 | 28107 ft | 433 kts | 245° |
| 2026-05-03 21:50 | 40.31268 | -118.35690 | 27621 ft | 428 kts | 244° |
| 2026-05-03 21:50 | 40.30089 | -118.39247 | 27129 ft | 424 kts | 244° |
| 2026-05-03 21:50 | 40.28916 | -118.42783 | 26652 ft | 420 kts | 244° |
| 2026-05-03 21:50 | 40.27756 | -118.46277 | 26183 ft | 417 kts | 244° |
| 2026-05-03 21:51 | 40.26599 | -118.49757 | 25724 ft | 413 kts | 244° |
| 2026-05-03 21:51 | 40.25456 | -118.53188 | 25261 ft | 410 kts | 244° |
| 2026-05-03 21:51 | 40.24301 | -118.56648 | 24797 ft | 406 kts | 244° |
| 2026-05-03 21:51 | 40.23172 | -118.60028 | 24339 ft | 404 kts | 244° |
| 2026-05-03 21:52 | 40.22038 | -118.63420 | 23879 ft | 401 kts | 244° |
| 2026-05-03 21:52 | 40.20924 | -118.66746 | 23420 ft | 398 kts | 244° |
| 2026-05-03 21:52 | 40.19814 | -118.70059 | 22882 ft | 395 kts | 244° |
| 2026-05-03 21:52 | 40.18727 | -118.73297 | 22391 ft | 392 kts | 244° |
| 2026-05-03 21:53 | 40.17620 | -118.76592 | 21935 ft | 388 kts | 244° |
| 2026-05-03 21:53 | 40.16540 | -118.79804 | 21467 ft | 384 kts | 244° |
| 2026-05-03 21:53 | 40.15468 | -118.82987 | 21008 ft | 381 kts | 244° |
| 2026-05-03 21:53 | 40.14403 | -118.86146 | 20559 ft | 378 kts | 243° |
| 2026-05-03 21:54 | 40.13331 | -118.89321 | 20108 ft | 375 kts | 243° |
| 2026-05-03 21:54 | 40.12276 | -118.92443 | 19671 ft | 373 kts | 243° |
| 2026-05-03 21:54 | 40.11221 | -118.95563 | 19222 ft | 370 kts | 243° |
| 2026-05-03 21:54 | 40.10181 | -118.98632 | 18783 ft | 368 kts | 243° |
| 2026-05-03 21:55 | 40.09148 | -119.01679 | 18348 ft | 366 kts | 243° |
| 2026-05-03 21:55 | 40.08118 | -119.04716 | 17894 ft | 365 kts | 243° |
| 2026-05-03 21:55 | 40.07093 | -119.07732 | 17414 ft | 363 kts | 243° |
| 2026-05-03 21:55 | 40.06059 | -119.10775 | 16963 ft | 360 kts | 243° |
| 2026-05-03 21:56 | 40.05032 | -119.13791 | 16566 ft | 357 kts | 243° |
| 2026-05-03 21:56 | 40.04030 | -119.16734 | 16164 ft | 354 kts | 243° |
| 2026-05-03 21:56 | 40.03031 | -119.19661 | 15745 ft | 352 kts | 243° |
| 2026-05-03 21:56 | 40.02025 | -119.22606 | 15321 ft | 350 kts | 243° |
| 2026-05-03 21:57 | 40.01020 | -119.25548 | 14894 ft | 349 kts | 243° |
| 2026-05-03 21:57 | 40.00036 | -119.28425 | 14504 ft | 347 kts | 243° |
| 2026-05-03 21:57 | 39.99057 | -119.31280 | 14077 ft | 346 kts | 242° |
| 2026-05-03 21:57 | 39.97761 | -119.33982 | 13493 ft | 344 kts | 227° |
| 2026-05-03 21:58 | 39.96201 | -119.36348 | 12969 ft | 344 kts | 226° |
| 2026-05-03 21:58 | 39.94628 | -119.38683 | 12513 ft | 341 kts | 225° |
| 2026-05-03 21:58 | 39.93079 | -119.40986 | 11862 ft | 336 kts | 226° |
| 2026-05-03 21:58 | 39.91540 | -119.43284 | 11209 ft | 339 kts | 226° |
| 2026-05-03 21:59 | 39.89997 | -119.45601 | 10742 ft | 339 kts | 226° |
| 2026-05-03 21:59 | 39.88954 | -119.47173 | 10486 ft | 337 kts | 226° |
| 2026-05-03 21:59 | 39.87064 | -119.50032 | 10291 ft | 324 kts | 226° |
| 2026-05-03 21:59 | 39.85614 | -119.52226 | 10152 ft | 315 kts | 226° |
| 2026-05-03 22:00 | 39.84201 | -119.54365 | 10024 ft | 306 kts | 226° |
| 2026-05-03 22:00 | 39.82832 | -119.56435 | 9872 ft | 298 kts | 226° |
| 2026-05-03 22:00 | 39.81902 | -119.57836 | 9739 ft | 295 kts | 226° |
| 2026-05-03 22:00 | 39.81453 | -119.58513 | 9721 ft | 292 kts | 226° |
| 2026-05-03 22:01 | 39.80137 | -119.60499 | 9584 ft | 285 kts | 226° |
| 2026-05-03 22:01 | 39.78867 | -119.62418 | 9474 ft | 277 kts | 226° |
| 2026-05-03 22:01 | 39.77656 | -119.64247 | 9355 ft | 270 kts | 226° |
| 2026-05-03 22:02 | 39.76429 | -119.66097 | 9260 ft | 263 kts | 226° |
| 2026-05-03 22:02 | 39.75249 | -119.67877 | 9121 ft | 257 kts | 225° |
| 2026-05-03 22:02 | 39.74079 | -119.69639 | 8881 ft | 255 kts | 226° |
| 2026-05-03 22:02 | 39.72908 | -119.71400 | 8653 ft | 255 kts | 226° |
| 2026-05-03 22:03 | 39.71754 | -119.73134 | 8419 ft | 251 kts | 226° |
| 2026-05-03 22:03 | 39.70619 | -119.74839 | 8181 ft | 248 kts | 225° |
| 2026-05-03 22:03 | 39.69347 | -119.76270 | 7929 ft | 239 kts | 198° |
| 2026-05-03 22:03 | 39.67759 | -119.76694 | 7728 ft | 231 kts | 182° |
| 2026-05-03 22:04 | 39.66174 | -119.76860 | 7505 ft | 228 kts | 177° |
| 2026-05-03 22:04 | 39.64592 | -119.76894 | 7175 ft | 226 kts | 174° |
| 2026-05-03 22:04 | 39.63035 | -119.76892 | 6875 ft | 222 kts | 174° |
| 2026-05-03 22:04 | 39.61506 | -119.76894 | 6584 ft | 211 kts | 175° |
| 2026-05-03 22:05 | 39.60072 | -119.76898 | 6279 ft | 201 kts | 176° |
| 2026-05-03 22:05 | 39.58716 | -119.76900 | 5993 ft | 187 kts | 178° |
| 2026-05-03 22:05 | 39.57464 | -119.76902 | 5737 ft | 171 kts | 179° |
| 2026-05-03 22:05 | 39.56311 | -119.76904 | 5489 ft | 160 kts | 179° |
| 2026-05-03 22:06 | 39.55198 | -119.76901 | 5220 ft | 163 kts | 178° |
| 2026-05-03 22:06 | 39.54060 | -119.76904 | 5133 ft | 165 kts | 180° |
| 2026-05-03 22:06 | 39.52874 | -119.76940 | 4904 ft | 169 kts | 178° |
| 2026-05-03 22:06 | 39.51714 | -119.76935 | 4677 ft | 163 kts | 176° |
| 2026-05-03 22:07 | 39.50608 | -119.76923 | 4528 ft | 146 kts | 176° |
| 2026-05-03 22:07 | 39.49722 | -119.76919 | 4525 ft | 108 kts | 180° |
| 2026-05-03 22:07 | 39.49309 | -119.76988 | 4526 ft | 23 kts | 232° |
| 2026-05-03 22:07 | 39.49324 | -119.77082 | 4523 ft | 8 kts | 329° |
| 2026-05-03 22:08 | 39.49378 | -119.77083 | 4523 ft | 9 kts | 6° |
| 2026-05-03 22:08 | 39.49493 | -119.77069 | 4520 ft | 24 kts | 4° |
| 2026-05-03 22:08 | 39.49691 | -119.77070 | 4522 ft | 32 kts | 359° |
| 2026-05-03 22:08 | 39.49943 | -119.77070 | 4521 ft | 39 kts | 0° |
| 2026-05-03 22:09 | 39.50132 | -119.77069 | 4518 ft | 25 kts | 0° |
| 2026-05-03 22:09 | 39.50301 | -119.77067 | 4518 ft | 23 kts | 0° |
| 2026-05-03 22:09 | 39.50459 | -119.77066 | 4518 ft | 22 kts | 359° |
| 2026-05-03 22:10 | 39.50611 | -119.77144 | 4520 ft | 6 kts | 301° |
| 2026-05-03 22:10 | 39.50622 | -119.77187 | 4518 ft | 5 kts | 289° |
| 2026-05-03 22:10 | 39.50645 | -119.77221 | 4518 ft | 5 kts | 321° |
| 2026-05-03 22:10 | 39.50662 | -119.77237 | 4517 ft | 0 kts | 324° |